Terminal Aerodrome Forecast
Issued by NWS

Home | Current Version | Previous Version | Graphics & Text | Print | Product List | Glossary On
Versions: 1 2 3 4 5 6 7 8 9 10 11 12 13 14 15 16 17
000
FTUS41 KCLE 141720
TAFFDY
TAF
KFDY 141720Z 1418/1518 16008KT P6SM BKN070
     FM142100 16007KT P6SM SCT100
     FM150300 19014KT P6SM BKN200 WS020/21040KT
     FM150800 21018G28KT P6SM BKN030
     FM151200 23020G32KT P6SM VCSH OVC025
      TEMPO 1514/1516 5SM -SHRA BR OVC020
     FM151600 25025G35KT P6SM BKN035=

USA.gov is the U.S. government's official web portal to all federal, state and local government web resources and services.